Portada
METAR-TAF:

METAR-TAF

Aeroports :

Taïf, Aràbia Saudita

latitud: 21-29N, longitud: 040-33E, altitud: 1478 m

Observació

L'informe es va fer fa 44 minuts, a les 16:00 UTC
Vent 12 kt del Nord-Oest
Temperatura 31°C
Humitat 19%
Pressió 1016 hPa
Visibilitat 10 km o més
sense núvols per sota de 1500 mi sense presència de cumulonimbus.

METAR: OETF 171600Z 31012KT CAVOK 31/05 Q1016 NOSIG

Hora: 19:44 (16:44 UTC)

Pronòstic

L'informe es va fer fa 5 hores i 44 minuts, a les 11:00 UTC
Pronòstic vàlid del 17 a les 12 UTC al 18 a les 18 UTC
Vent 8 kt del Oest/Nord-Oest amb ràfegues de 18 kt
Visibilitat: 7000 m

TAF: OETF 171100Z 1712/1818 29008G18KT 7000 NSC

Observacions i pronòstics meteorològics de més de 4000 aeroports (METAR i TAF).

Les estacions disponibles són els punts grocs i vermells al mapa.

Posi el ratolí al punt desitjat per veure el nom de l'estació.

Feu clic per veure les observacions i els pronòstics meteorològics.

Per canviar el mapa: feu clic els botons verds amb una creu de color negre per apropar; al botó verd amb un guió per allunyar la imatge; o en les fletxes verdes per a mapes adjacents.


METAR-TAF: